Flight Track Log - Related Links

Times and Time Zones

All times are in EDT time to prevent confusion due to time zone crossing. See the PDT4314 flight status page for this flight to view local times or setup timezone preferences in your user account.

Time Position Orientation Groundspeed Altitude Reporting Facility
EDT Latitude Longitude Course Direction KTS MPH feet Rate Location/Type
Tue 07:51:33 PM 39.9000 -75.2333 294° West 115 132 700  Level Philadelphia TRACON
Tue 07:52:27 PM 39.9167 -75.2833 294° West 151 174 1,900 1,222 Climbing Philadelphia TRACON
Tue 07:53:21 PM 39.9167 -75.3333 270° West 146 168 2,900 1,105 Climbing Philadelphia TRACON
Tue 07:54:21 PM 39.9333 -75.3833 294° West 158 182 4,000 1,000 Climbing Philadelphia TRACON
Tue 07:54:57 PM 39.9411 -75.4089 292° West 157 181 4,500 1,313 Climbing New York Center
Tue 07:55:57 PM 39.9617 -75.4642 296° West 157 181 6,100 1,300 Climbing New York Center
Tue 07:56:57 PM 39.9900 -75.4878 327° Northwest 157 181 7,100 1,200 Climbing New York Center
Tue 07:57:57 PM 40.0375 -75.4992 350° North 157 181 8,500 1,150 Climbing New York Center
Tue 07:58:57 PM 40.0744 -75.5153 342° North 162 186 9,400 950 Climbing New York Center
Tue 07:59:57 PM 40.1217 -75.5322 345° North 162 186 10,400 850 Climbing New York Center
Tue 08:00:57 PM 40.1628 -75.5458 346° North 162 186 11,100 800 Climbing New York Center
Tue 08:01:57 PM 40.2142 -75.5603 325° Northwest 179 206 12,000 450 Climbing New York Center
Tue 08:02:57 PM 40.2681 -75.5722 350° North 189 217 12,000  Level New York Center
Tue 08:03:57 PM 40.3342 -75.5822 353° North 206 237 12,000  Level New York Center
Tue 08:04:57 PM 40.3961 -75.5972 350° North 219 252 12,000  Level New York Center
Tue 08:05:57 PM 40.4561 -75.6097 351° North 219 252 12,000  Level New York Center
Tue 08:06:57 PM 40.5122 -75.6164 355° North 224 258 12,000  Level New York Center
Tue 08:07:57 PM 40.5744 -75.6236 355° North 224 258 12,000  Level New York Center
Tue 08:08:57 PM 40.6425 -75.6367 352° North 219 252 12,000  Level New York Center
Tue 08:09:57 PM 40.7044 -75.6519 349° North 219 252 12,000  Level New York Center
Tue 08:10:57 PM 40.7644 -75.6644 351° North 219 252 12,000  Level New York Center
Tue 08:11:57 PM 40.8222 -75.6794 349° North 219 252 12,000  Level New York Center
Tue 08:12:57 PM 40.8819 -75.6922 351° North 219 252 12,000  Level New York Center
Tue 08:13:57 PM 40.9500 -75.7108 348° North 219 252 12,000  Level New York Center
Tue 08:14:57 PM 41.0039 -75.7200 353° North 219 252 12,000  Level New York Center
Tue 08:15:57 PM 41.0636 -75.7328 351° North 219 252 12,000  Level New York Center
Tue 08:16:57 PM 41.1317 -75.7489 350° North 219 252 12,000  Level New York Center
Tue 08:17:57 PM 41.1917 -75.7586 353° North 219 252 12,000  Level New York Center
Tue 08:18:57 PM 41.2536 -75.7717 351° North 219 252 12,000  Level New York Center
Tue 08:19:57 PM 41.3133 -75.7897 347° North 219 252 12,000  Level New York Center
Tue 08:20:57 PM 41.3753 -75.8028 351° North 219 252 12,000  Level New York Center
Tue 08:21:57 PM 41.4375 -75.8075 357° North 219 252 12,000 -300 Level New York Center
Tue 08:22:57 PM 41.4992 -75.8286 346° North 219 252 11,400 -800 Descending New York Center
Tue 08:23:57 PM 41.5717 -75.8397 353° North 239 275 10,400 -950 Descending New York Center
Tue 08:24:57 PM 41.6333 -75.8528 351° North 249 287 9,500 -700 Descending New York Center
Tue 08:25:57 PM 41.7031 -75.8775 345° North 256 295 9,000 -600 Descending New York Center
Tue 08:26:57 PM 41.7733 -75.8939 350° North 244 281 8,300 -850 Descending New York Center
Tue 08:27:57 PM 41.8436 -75.9050 353° North 244 281 7,300 -950 Descending New York Center
Tue 08:28:57 PM 41.9139 -75.9186 352° North 255 293 6,400 -1,000 Descending New York Center
Tue 08:29:57 PM 41.9756 -75.9375 347° North 255 293 5,300 -1,050 Descending New York Center
Tue 08:30:57 PM 42.0436 -75.9483 353° North 255 293 4,300 -900 Descending New York Center
Tue 08:31:57 PM 42.1125 -75.9453 North 248 285 3,500 -800 Descending New York Center
Tue 08:32:57 PM 42.1564 -75.9403 North 208 239 2,700 -750 Descending New York Center
Tue 08:33:57 PM 42.2039 -75.9525 349° North 159 183 2,000 -700 Descending New York Center

Login

Don't have an account? Register now (free) for customized features, flight alerts, and more!